sensor_id;sensor_type;location;lat;lon;timestamp;P1;durP1;ratioP1;P2;durP2;ratioP2
37407;SDS011;24866;50.248;8.252;2023-07-30T00:01:15;5.55;;;1.67;;
37407;SDS011;24866;50.248;8.252;2023-07-30T00:03:45;5.55;;;1.73;;
37407;SDS011;24866;50.248;8.252;2023-07-30T00:06:15;3.65;;;1.50;;
37407;SDS011;24866;50.248;8.252;2023-07-30T00:08:45;5.68;;;2.13;;
37407;SDS011;24866;50.248;8.252;2023-07-30T00:11:14;9.98;;;2.05;;
37407;SDS011;24866;50.248;8.252;2023-07-30T00:13:44;7.97;;;2.58;;
37407;SDS011;24866;50.248;8.252;2023-07-30T00:16:15;10.95;;;1.90;;
37407;SDS011;24866;50.248;8.252;2023-07-30T00:18:45;5.63;;;2.55;;
37407;SDS011;24866;50.248;8.252;2023-07-30T00:21:15;5.30;;;1.90;;
37407;SDS011;24866;50.248;8.252;2023-07-30T00:23:45;4.75;;;1.77;;
37407;SDS011;24866;50.248;8.252;2023-07-30T00:26:15;3.97;;;1.98;;
37407;SDS011;24866;50.248;8.252;2023-07-30T00:28:44;8.10;;;1.50;;
37407;SDS011;24866;50.248;8.252;2023-07-30T00:31:16;5.35;;;1.63;;
37407;SDS011;24866;50.248;8.252;2023-07-30T00:33:45;3.97;;;1.50;;
37407;SDS011;24866;50.248;8.252;2023-07-30T00:36:15;4.45;;;1.67;;
37407;SDS011;24866;50.248;8.252;2023-07-30T00:38:45;5.10;;;1.38;;
37407;SDS011;24866;50.248;8.252;2023-07-30T00:41:15;3.85;;;2.20;;
37407;SDS011;24866;50.248;8.252;2023-07-30T00:43:45;7.82;;;1.90;;
37407;SDS011;24866;50.248;8.252;2023-07-30T00:46:16;7.15;;;1.65;;
37407;SDS011;24866;50.248;8.252;2023-07-30T00:48:46;4.90;;;1.90;;
37407;SDS011;24866;50.248;8.252;2023-07-30T00:51:16;7.00;;;2.10;;
37407;SDS011;24866;50.248;8.252;2023-07-30T00:53:46;6.00;;;1.75;;
37407;SDS011;24866;50.248;8.252;2023-07-30T00:56:16;6.30;;;1.77;;
37407;SDS011;24866;50.248;8.252;2023-07-30T00:58:46;14.18;;;3.30;;
37407;SDS011;24866;50.248;8.252;2023-07-30T01:01:19;7.93;;;2.70;;
37407;SDS011;24866;50.248;8.252;2023-07-30T01:03:49;8.20;;;2.20;;
37407;SDS011;24866;50.248;8.252;2023-07-30T01:06:19;4.43;;;1.83;;
37407;SDS011;24866;50.248;8.252;2023-07-30T01:08:49;9.15;;;2.80;;
37407;SDS011;24866;50.248;8.252;2023-07-30T01:11:19;7.45;;;2.38;;
37407;SDS011;24866;50.248;8.252;2023-07-30T01:13:50;6.90;;;2.08;;
37407;SDS011;24866;50.248;8.252;2023-07-30T01:16:21;9.65;;;2.25;;
37407;SDS011;24866;50.248;8.252;2023-07-30T01:18:51;6.43;;;2.13;;
37407;SDS011;24866;50.248;8.252;2023-07-30T01:21:22;7.50;;;2.20;;
37407;SDS011;24866;50.248;8.252;2023-07-30T01:23:52;4.45;;;2.40;;
37407;SDS011;24866;50.248;8.252;2023-07-30T01:26:23;4.50;;;1.70;;
37407;SDS011;24866;50.248;8.252;2023-07-30T01:28:56;4.38;;;1.77;;
37407;SDS011;24866;50.248;8.252;2023-07-30T01:34:01;8.07;;;2.17;;
37407;SDS011;24866;50.248;8.252;2023-07-30T01:36:33;4.38;;;1.80;;
37407;SDS011;24866;50.248;8.252;2023-07-30T01:39:05;8.77;;;1.88;;
37407;SDS011;24866;50.248;8.252;2023-07-30T01:41:35;9.05;;;2.33;;
37407;SDS011;24866;50.248;8.252;2023-07-30T01:44:05;4.72;;;2.25;;
37407;SDS011;24866;50.248;8.252;2023-07-30T01:46:35;5.40;;;2.10;;
37407;SDS011;24866;50.248;8.252;2023-07-30T01:49:05;4.15;;;1.55;;
37407;SDS011;24866;50.248;8.252;2023-07-30T01:51:36;5.60;;;2.28;;
37407;SDS011;24866;50.248;8.252;2023-07-30T01:54:06;5.78;;;1.73;;
37407;SDS011;24866;50.248;8.252;2023-07-30T01:56:36;6.47;;;2.60;;
37407;SDS011;24866;50.248;8.252;2023-07-30T01:59:06;9.52;;;3.10;;
37407;SDS011;24866;50.248;8.252;2023-07-30T02:01:36;6.60;;;2.38;;
37407;SDS011;24866;50.248;8.252;2023-07-30T02:04:05;5.00;;;2.50;;
37407;SDS011;24866;50.248;8.252;2023-07-30T02:06:37;6.97;;;2.70;;
37407;SDS011;24866;50.248;8.252;2023-07-30T02:09:06;4.38;;;2.17;;
37407;SDS011;24866;50.248;8.252;2023-07-30T02:11:36;5.05;;;2.08;;
37407;SDS011;24866;50.248;8.252;2023-07-30T02:14:06;3.35;;;1.63;;
37407;SDS011;24866;50.248;8.252;2023-07-30T02:16:36;6.35;;;1.85;;
37407;SDS011;24866;50.248;8.252;2023-07-30T02:19:06;4.57;;;2.30;;
37407;SDS011;24866;50.248;8.252;2023-07-30T02:21:38;4.68;;;1.88;;
37407;SDS011;24866;50.248;8.252;2023-07-30T02:24:10;5.90;;;2.08;;
37407;SDS011;24866;50.248;8.252;2023-07-30T02:26:40;5.25;;;2.25;;
37407;SDS011;24866;50.248;8.252;2023-07-30T02:29:10;3.90;;;1.90;;
37407;SDS011;24866;50.248;8.252;2023-07-30T02:31:40;4.28;;;2.00;;
37407;SDS011;24866;50.248;8.252;2023-07-30T02:34:10;4.88;;;2.10;;
37407;SDS011;24866;50.248;8.252;2023-07-30T02:36:41;14.02;;;2.50;;
37407;SDS011;24866;50.248;8.252;2023-07-30T02:39:10;8.68;;;2.35;;
37407;SDS011;24866;50.248;8.252;2023-07-30T02:41:40;7.32;;;2.10;;
37407;SDS011;24866;50.248;8.252;2023-07-30T02:44:10;6.22;;;1.75;;
37407;SDS011;24866;50.248;8.252;2023-07-30T02:46:40;10.20;;;2.10;;
37407;SDS011;24866;50.248;8.252;2023-07-30T02:49:10;5.38;;;1.77;;
37407;SDS011;24866;50.248;8.252;2023-07-30T02:51:41;4.70;;;1.55;;
37407;SDS011;24866;50.248;8.252;2023-07-30T02:54:11;5.10;;;1.58;;
37407;SDS011;24866;50.248;8.252;2023-07-30T02:56:42;5.82;;;1.77;;
37407;SDS011;24866;50.248;8.252;2023-07-30T02:59:12;3.58;;;1.70;;
37407;SDS011;24866;50.248;8.252;2023-07-30T03:01:42;7.00;;;2.22;;
37407;SDS011;24866;50.248;8.252;2023-07-30T03:04:12;8.73;;;2.30;;
37407;SDS011;24866;50.248;8.252;2023-07-30T03:06:43;7.20;;;2.25;;
37407;SDS011;24866;50.248;8.252;2023-07-30T03:09:13;5.63;;;1.88;;
37407;SDS011;24866;50.248;8.252;2023-07-30T03:11:43;10.50;;;2.00;;
37407;SDS011;24866;50.248;8.252;2023-07-30T03:14:13;7.05;;;2.00;;
37407;SDS011;24866;50.248;8.252;2023-07-30T03:16:42;6.05;;;1.65;;
37407;SDS011;24866;50.248;8.252;2023-07-30T03:19:12;8.27;;;2.08;;
37407;SDS011;24866;50.248;8.252;2023-07-30T03:21:44;12.32;;;2.72;;
37407;SDS011;24866;50.248;8.252;2023-07-30T03:24:14;13.18;;;2.70;;
37407;SDS011;24866;50.248;8.252;2023-07-30T03:26:43;9.75;;;2.60;;
37407;SDS011;24866;50.248;8.252;2023-07-30T03:29:14;6.57;;;2.40;;
37407;SDS011;24866;50.248;8.252;2023-07-30T03:31:44;8.30;;;2.17;;
37407;SDS011;24866;50.248;8.252;2023-07-30T03:34:14;10.38;;;2.10;;
37407;SDS011;24866;50.248;8.252;2023-07-30T03:36:45;8.65;;;2.00;;
37407;SDS011;24866;50.248;8.252;2023-07-30T03:39:15;6.65;;;1.92;;
37407;SDS011;24866;50.248;8.252;2023-07-30T03:41:45;5.80;;;2.00;;
37407;SDS011;24866;50.248;8.252;2023-07-30T03:44:14;8.57;;;1.80;;
37407;SDS011;24866;50.248;8.252;2023-07-30T03:46:45;5.55;;;1.77;;
37407;SDS011;24866;50.248;8.252;2023-07-30T03:49:15;6.00;;;2.20;;
37407;SDS011;24866;50.248;8.252;2023-07-30T03:51:46;6.47;;;2.47;;
37407;SDS011;24866;50.248;8.252;2023-07-30T03:54:16;12.20;;;2.30;;
37407;SDS011;24866;50.248;8.252;2023-07-30T03:56:46;6.72;;;1.73;;
37407;SDS011;24866;50.248;8.252;2023-07-30T03:59:16;11.07;;;2.90;;
37407;SDS011;24866;50.248;8.252;2023-07-30T04:01:46;8.93;;;2.30;;
37407;SDS011;24866;50.248;8.252;2023-07-30T04:04:16;11.10;;;2.72;;
37407;SDS011;24866;50.248;8.252;2023-07-30T04:06:47;6.03;;;2.47;;
37407;SDS011;24866;50.248;8.252;2023-07-30T04:09:17;12.98;;;2.40;;
37407;SDS011;24866;50.248;8.252;2023-07-30T04:11:47;10.32;;;2.42;;
37407;SDS011;24866;50.248;8.252;2023-07-30T04:14:16;7.90;;;2.25;;
37407;SDS011;24866;50.248;8.252;2023-07-30T04:16:46;10.18;;;2.70;;
37407;SDS011;24866;50.248;8.252;2023-07-30T04:19:17;5.50;;;1.98;;
37407;SDS011;24866;50.248;8.252;2023-07-30T04:21:48;6.50;;;2.28;;
37407;SDS011;24866;50.248;8.252;2023-07-30T04:24:18;7.15;;;1.98;;
37407;SDS011;24866;50.248;8.252;2023-07-30T04:26:48;9.13;;;2.10;;
37407;SDS011;24866;50.248;8.252;2023-07-30T04:29:18;6.57;;;2.20;;
37407;SDS011;24866;50.248;8.252;2023-07-30T04:31:48;5.88;;;1.90;;
37407;SDS011;24866;50.248;8.252;2023-07-30T04:34:17;3.72;;;1.67;;
37407;SDS011;24866;50.248;8.252;2023-07-30T04:36:49;5.15;;;2.00;;
37407;SDS011;24866;50.248;8.252;2023-07-30T04:39:18;4.57;;;1.92;;
37407;SDS011;24866;50.248;8.252;2023-07-30T04:41:48;5.78;;;1.88;;
37407;SDS011;24866;50.248;8.252;2023-07-30T04:44:18;7.53;;;2.30;;
37407;SDS011;24866;50.248;8.252;2023-07-30T04:46:48;7.65;;;2.00;;
37407;SDS011;24866;50.248;8.252;2023-07-30T04:49:18;8.05;;;2.50;;
37407;SDS011;24866;50.248;8.252;2023-07-30T04:51:49;11.68;;;2.25;;
37407;SDS011;24866;50.248;8.252;2023-07-30T04:54:19;8.40;;;2.00;;
37407;SDS011;24866;50.248;8.252;2023-07-30T04:56:48;4.90;;;2.13;;
37407;SDS011;24866;50.248;8.252;2023-07-30T04:59:19;6.35;;;1.75;;
37407;SDS011;24866;50.248;8.252;2023-07-30T05:01:48;7.55;;;1.83;;
37407;SDS011;24866;50.248;8.252;2023-07-30T05:04:18;6.13;;;1.88;;
37407;SDS011;24866;50.248;8.252;2023-07-30T05:06:49;6.68;;;2.00;;
37407;SDS011;24866;50.248;8.252;2023-07-30T05:09:19;7.63;;;2.63;;
37407;SDS011;24866;50.248;8.252;2023-07-30T05:11:49;9.32;;;2.35;;
37407;SDS011;24866;50.248;8.252;2023-07-30T05:14:19;7.72;;;2.40;;
37407;SDS011;24866;50.248;8.252;2023-07-30T05:16:49;12.27;;;2.20;;
37407;SDS011;24866;50.248;8.252;2023-07-30T05:19:19;4.47;;;2.10;;
37407;SDS011;24866;50.248;8.252;2023-07-30T05:21:50;10.63;;;1.83;;
37407;SDS011;24866;50.248;8.252;2023-07-30T05:24:20;5.20;;;2.20;;
37407;SDS011;24866;50.248;8.252;2023-07-30T05:26:50;4.32;;;2.17;;
37407;SDS011;24866;50.248;8.252;2023-07-30T05:29:20;6.20;;;1.95;;
37407;SDS011;24866;50.248;8.252;2023-07-30T05:31:50;6.75;;;1.77;;
37407;SDS011;24866;50.248;8.252;2023-07-30T05:34:20;3.78;;;2.00;;
37407;SDS011;24866;50.248;8.252;2023-07-30T05:36:51;5.13;;;1.90;;
37407;SDS011;24866;50.248;8.252;2023-07-30T05:39:21;6.20;;;1.88;;
37407;SDS011;24866;50.248;8.252;2023-07-30T05:41:51;5.20;;;1.95;;
37407;SDS011;24866;50.248;8.252;2023-07-30T05:44:20;7.50;;;1.80;;
37407;SDS011;24866;50.248;8.252;2023-07-30T05:46:50;6.68;;;1.88;;
37407;SDS011;24866;50.248;8.252;2023-07-30T05:49:20;4.00;;;1.55;;
37407;SDS011;24866;50.248;8.252;2023-07-30T05:51:51;5.32;;;1.83;;
37407;SDS011;24866;50.248;8.252;2023-07-30T05:54:21;7.22;;;1.77;;
37407;SDS011;24866;50.248;8.252;2023-07-30T05:56:51;5.63;;;1.80;;
37407;SDS011;24866;50.248;8.252;2023-07-30T05:59:21;4.53;;;1.60;;
37407;SDS011;24866;50.248;8.252;2023-07-30T06:01:51;5.40;;;1.70;;
37407;SDS011;24866;50.248;8.252;2023-07-30T06:04:20;2.97;;;1.38;;
37407;SDS011;24866;50.248;8.252;2023-07-30T06:06:52;2.40;;;1.17;;
37407;SDS011;24866;50.248;8.252;2023-07-30T06:09:22;3.35;;;1.23;;
37407;SDS011;24866;50.248;8.252;2023-07-30T06:11:51;3.15;;;1.42;;
37407;SDS011;24866;50.248;8.252;2023-07-30T06:14:21;3.72;;;1.23;;
37407;SDS011;24866;50.248;8.252;2023-07-30T06:16:51;2.15;;;1.27;;
37407;SDS011;24866;50.248;8.252;2023-07-30T06:19:21;4.30;;;1.40;;
37407;SDS011;24866;50.248;8.252;2023-07-30T06:21:52;2.60;;;1.40;;
37407;SDS011;24866;50.248;8.252;2023-07-30T06:24:22;2.28;;;1.15;;
37407;SDS011;24866;50.248;8.252;2023-07-30T06:26:52;1.90;;;1.13;;
37407;SDS011;24866;50.248;8.252;2023-07-30T06:29:22;2.45;;;1.17;;
37407;SDS011;24866;50.248;8.252;2023-07-30T06:31:52;3.25;;;1.30;;
37407;SDS011;24866;50.248;8.252;2023-07-30T06:34:21;4.07;;;1.45;;
37407;SDS011;24866;50.248;8.252;2023-07-30T06:36:53;3.25;;;1.60;;
37407;SDS011;24866;50.248;8.252;2023-07-30T06:39:23;4.75;;;1.50;;
37407;SDS011;24866;50.248;8.252;2023-07-30T06:41:53;4.10;;;1.50;;
37407;SDS011;24866;50.248;8.252;2023-07-30T06:44:22;4.28;;;1.42;;
37407;SDS011;24866;50.248;8.252;2023-07-30T06:46:53;3.38;;;1.17;;
37407;SDS011;24866;50.248;8.252;2023-07-30T06:49:23;5.88;;;1.70;;
37407;SDS011;24866;50.248;8.252;2023-07-30T06:51:54;4.45;;;1.48;;
37407;SDS011;24866;50.248;8.252;2023-07-30T06:54:24;4.15;;;1.38;;
37407;SDS011;24866;50.248;8.252;2023-07-30T06:56:54;5.13;;;1.95;;
37407;SDS011;24866;50.248;8.252;2023-07-30T06:59:24;6.72;;;1.58;;
37407;SDS011;24866;50.248;8.252;2023-07-30T07:01:53;7.05;;;1.67;;
37407;SDS011;24866;50.248;8.252;2023-07-30T07:04:23;5.13;;;1.60;;
37407;SDS011;24866;50.248;8.252;2023-07-30T07:06:54;7.18;;;1.55;;
37407;SDS011;24866;50.248;8.252;2023-07-30T07:09:24;2.92;;;1.10;;
37407;SDS011;24866;50.248;8.252;2023-07-30T07:11:54;3.25;;;1.33;;
37407;SDS011;24866;50.248;8.252;2023-07-30T07:14:24;2.35;;;1.30;;
37407;SDS011;24866;50.248;8.252;2023-07-30T07:16:54;3.03;;;1.30;;
37407;SDS011;24866;50.248;8.252;2023-07-30T07:19:24;2.65;;;1.30;;
37407;SDS011;24866;50.248;8.252;2023-07-30T07:21:55;3.63;;;1.55;;
37407;SDS011;24866;50.248;8.252;2023-07-30T07:24:25;3.38;;;1.50;;
37407;SDS011;24866;50.248;8.252;2023-07-30T07:26:55;4.28;;;1.63;;
37407;SDS011;24866;50.248;8.252;2023-07-30T07:29:25;2.38;;;1.52;;
37407;SDS011;24866;50.248;8.252;2023-07-30T07:31:54;5.03;;;1.60;;
37407;SDS011;24866;50.248;8.252;2023-07-30T07:34:24;4.30;;;1.75;;
37407;SDS011;24866;50.248;8.252;2023-07-30T07:36:56;4.55;;;1.63;;
37407;SDS011;24866;50.248;8.252;2023-07-30T07:39:25;3.83;;;1.48;;
37407;SDS011;24866;50.248;8.252;2023-07-30T07:41:55;5.40;;;1.40;;
37407;SDS011;24866;50.248;8.252;2023-07-30T07:44:25;4.22;;;1.45;;
37407;SDS011;24866;50.248;8.252;2023-07-30T07:46:55;2.38;;;1.15;;
37407;SDS011;24866;50.248;8.252;2023-07-30T07:49:25;4.18;;;1.50;;
37407;SDS011;24866;50.248;8.252;2023-07-30T07:51:56;4.85;;;1.52;;
37407;SDS011;24866;50.248;8.252;2023-07-30T07:54:26;4.90;;;1.60;;
37407;SDS011;24866;50.248;8.252;2023-07-30T07:56:55;3.80;;;1.23;;
37407;SDS011;24866;50.248;8.252;2023-07-30T07:59:25;3.80;;;1.38;;
37407;SDS011;24866;50.248;8.252;2023-07-30T08:01:56;3.35;;;1.35;;
37407;SDS011;24866;50.248;8.252;2023-07-30T08:04:25;3.00;;;1.30;;
37407;SDS011;24866;50.248;8.252;2023-07-30T08:06:57;3.00;;;1.30;;
37407;SDS011;24866;50.248;8.252;2023-07-30T08:09:28;2.05;;;1.30;;
37407;SDS011;24866;50.248;8.252;2023-07-30T08:11:58;3.88;;;1.02;;
37407;SDS011;24866;50.248;8.252;2023-07-30T08:14:29;2.40;;;1.23;;
37407;SDS011;24866;50.248;8.252;2023-07-30T08:16:59;3.50;;;1.45;;
37407;SDS011;24866;50.248;8.252;2023-07-30T08:19:29;3.35;;;1.42;;
37407;SDS011;24866;50.248;8.252;2023-07-30T08:22:00;3.15;;;1.63;;
37407;SDS011;24866;50.248;8.252;2023-07-30T08:24:30;2.00;;;1.10;;
37407;SDS011;24866;50.248;8.252;2023-07-30T08:27:00;5.80;;;1.20;;
37407;SDS011;24866;50.248;8.252;2023-07-30T08:29:29;3.63;;;1.80;;
37407;SDS011;24866;50.248;8.252;2023-07-30T08:31:59;3.22;;;1.40;;
37407;SDS011;24866;50.248;8.252;2023-07-30T08:34:29;2.67;;;1.63;;
37407;SDS011;24866;50.248;8.252;2023-07-30T08:37:00;3.15;;;1.52;;
37407;SDS011;24866;50.248;8.252;2023-07-30T08:39:30;2.78;;;1.50;;
37407;SDS011;24866;50.248;8.252;2023-07-30T08:42:00;3.42;;;1.45;;
37407;SDS011;24866;50.248;8.252;2023-07-30T08:44:30;2.25;;;1.40;;
37407;SDS011;24866;50.248;8.252;2023-07-30T08:47:00;3.00;;;1.60;;
37407;SDS011;24866;50.248;8.252;2023-07-30T08:49:30;3.45;;;1.48;;
37407;SDS011;24866;50.248;8.252;2023-07-30T08:52:02;3.10;;;1.42;;
37407;SDS011;24866;50.248;8.252;2023-07-30T08:54:37;2.15;;;1.52;;
37407;SDS011;24866;50.248;8.252;2023-07-30T08:57:07;2.95;;;1.88;;
37407;SDS011;24866;50.248;8.252;2023-07-30T08:59:39;3.83;;;1.70;;
37407;SDS011;24866;50.248;8.252;2023-07-30T09:02:13;3.58;;;1.65;;
37407;SDS011;24866;50.248;8.252;2023-07-30T09:04:47;6.18;;;1.70;;
37407;SDS011;24866;50.248;8.252;2023-07-30T09:07:27;5.18;;;2.13;;
37407;SDS011;24866;50.248;8.252;2023-07-30T09:09:57;4.82;;;1.55;;
37407;SDS011;24866;50.248;8.252;2023-07-30T09:12:28;2.38;;;1.27;;
37407;SDS011;24866;50.248;8.252;2023-07-30T09:14:59;2.03;;;1.00;;
37407;SDS011;24866;50.248;8.252;2023-07-30T09:17:31;3.17;;;1.30;;
37407;SDS011;24866;50.248;8.252;2023-07-30T09:20:01;1.55;;;0.77;;
37407;SDS011;24866;50.248;8.252;2023-07-30T09:22:34;0.90;;;0.60;;
37407;SDS011;24866;50.248;8.252;2023-07-30T09:25:08;3.00;;;0.65;;
37407;SDS011;24866;50.248;8.252;2023-07-30T09:27:39;1.92;;;0.80;;
37407;SDS011;24866;50.248;8.252;2023-07-30T09:30:09;2.33;;;0.80;;
37407;SDS011;24866;50.248;8.252;2023-07-30T09:32:39;1.23;;;0.50;;
37407;SDS011;24866;50.248;8.252;2023-07-30T09:35:10;1.73;;;0.80;;
37407;SDS011;24866;50.248;8.252;2023-07-30T09:37:42;2.42;;;0.60;;
37407;SDS011;24866;50.248;8.252;2023-07-30T09:40:13;2.75;;;1.00;;
37407;SDS011;24866;50.248;8.252;2023-07-30T09:42:44;1.08;;;0.60;;
37407;SDS011;24866;50.248;8.252;2023-07-30T09:45:22;2.25;;;0.63;;
37407;SDS011;24866;50.248;8.252;2023-07-30T09:47:53;2.03;;;0.70;;
37407;SDS011;24866;50.248;8.252;2023-07-30T09:50:25;1.52;;;0.60;;
37407;SDS011;24866;50.248;8.252;2023-07-30T09:52:56;0.75;;;0.55;;
37407;SDS011;24866;50.248;8.252;2023-07-30T09:57:57;3.58;;;0.90;;
37407;SDS011;24866;50.248;8.252;2023-07-30T10:00:27;1.85;;;0.80;;
37407;SDS011;24866;50.248;8.252;2023-07-30T10:02:59;1.77;;;0.80;;
37407;SDS011;24866;50.248;8.252;2023-07-30T10:05:32;2.67;;;1.30;;
37407;SDS011;24866;50.248;8.252;2023-07-30T10:08:07;4.50;;;1.30;;
37407;SDS011;24866;50.248;8.252;2023-07-30T10:10:41;4.18;;;1.33;;
37407;SDS011;24866;50.248;8.252;2023-07-30T10:13:11;3.25;;;1.25;;
37407;SDS011;24866;50.248;8.252;2023-07-30T10:15:43;5.00;;;1.27;;
37407;SDS011;24866;50.248;8.252;2023-07-30T10:18:13;2.35;;;0.77;;
37407;SDS011;24866;50.248;8.252;2023-07-30T10:20:45;4.25;;;1.60;;
37407;SDS011;24866;50.248;8.252;2023-07-30T10:23:23;3.63;;;1.20;;
37407;SDS011;24866;50.248;8.252;2023-07-30T10:25:56;3.95;;;1.25;;
37407;SDS011;24866;50.248;8.252;2023-07-30T10:28:31;2.40;;;0.68;;
37407;SDS011;24866;50.248;8.252;2023-07-30T10:31:02;4.85;;;1.42;;
37407;SDS011;24866;50.248;8.252;2023-07-30T10:33:46;3.58;;;1.77;;
37407;SDS011;24866;50.248;8.252;2023-07-30T10:36:18;8.40;;;1.10;;
37407;SDS011;24866;50.248;8.252;2023-07-30T10:39:03;3.90;;;1.75;;
37407;SDS011;24866;50.248;8.252;2023-07-30T10:41:41;4.20;;;1.33;;
37407;SDS011;24866;50.248;8.252;2023-07-30T10:44:17;5.78;;;1.95;;
37407;SDS011;24866;50.248;8.252;2023-07-30T10:46:57;2.88;;;1.40;;
37407;SDS011;24866;50.248;8.252;2023-07-30T10:49:27;5.47;;;1.90;;
37407;SDS011;24866;50.248;8.252;2023-07-30T10:51:58;5.15;;;1.30;;
37407;SDS011;24866;50.248;8.252;2023-07-30T10:54:33;6.40;;;1.27;;
37407;SDS011;24866;50.248;8.252;2023-07-30T10:57:04;6.50;;;1.30;;
37407;SDS011;24866;50.248;8.252;2023-07-30T10:59:34;5.00;;;1.45;;
37407;SDS011;24866;50.248;8.252;2023-07-30T11:02:05;6.50;;;1.92;;
37407;SDS011;24866;50.248;8.252;2023-07-30T11:04:36;3.87;;;1.47;;
37407;SDS011;24866;50.248;8.252;2023-07-30T11:07:06;7.90;;;1.90;;
37407;SDS011;24866;50.248;8.252;2023-07-30T11:09:38;8.68;;;1.77;;
37407;SDS011;24866;50.248;8.252;2023-07-30T11:12:08;4.40;;;1.10;;
37407;SDS011;24866;50.248;8.252;2023-07-30T11:14:38;8.85;;;1.80;;
37407;SDS011;24866;50.248;8.252;2023-07-30T11:17:08;5.28;;;1.40;;
37407;SDS011;24866;50.248;8.252;2023-07-30T11:19:42;6.80;;;1.40;;
37407;SDS011;24866;50.248;8.252;2023-07-30T11:22:12;6.45;;;1.88;;
37407;SDS011;24866;50.248;8.252;2023-07-30T11:24:43;6.07;;;2.00;;
37407;SDS011;24866;50.248;8.252;2023-07-30T11:27:13;7.63;;;1.98;;
37407;SDS011;24866;50.248;8.252;2023-07-30T11:29:44;7.60;;;1.73;;
37407;SDS011;24866;50.248;8.252;2023-07-30T11:32:23;8.95;;;1.95;;
37407;SDS011;24866;50.248;8.252;2023-07-30T11:34:54;7.13;;;1.33;;
37407;SDS011;24866;50.248;8.252;2023-07-30T11:37:24;3.67;;;1.35;;
37407;SDS011;24866;50.248;8.252;2023-07-30T11:39:55;7.28;;;1.17;;
37407;SDS011;24866;50.248;8.252;2023-07-30T11:42:25;9.52;;;2.03;;
37407;SDS011;24866;50.248;8.252;2023-07-30T11:44:58;1.73;;;0.65;;
37407;SDS011;24866;50.248;8.252;2023-07-30T11:47:27;5.63;;;1.80;;
37407;SDS011;24866;50.248;8.252;2023-07-30T11:49:57;3.75;;;1.05;;
37407;SDS011;24866;50.248;8.252;2023-07-30T11:52:27;6.00;;;1.63;;
37407;SDS011;24866;50.248;8.252;2023-07-30T11:55:02;7.50;;;1.20;;
37407;SDS011;24866;50.248;8.252;2023-07-30T11:57:33;3.53;;;1.25;;
37407;SDS011;24866;50.248;8.252;2023-07-30T12:00:04;4.53;;;1.05;;
37407;SDS011;24866;50.248;8.252;2023-07-30T12:02:38;6.57;;;1.70;;
37407;SDS011;24866;50.248;8.252;2023-07-30T12:05:09;6.57;;;1.45;;
37407;SDS011;24866;50.248;8.252;2023-07-30T12:07:40;4.90;;;1.88;;
37407;SDS011;24866;50.248;8.252;2023-07-30T12:10:12;5.05;;;1.33;;
37407;SDS011;24866;50.248;8.252;2023-07-30T12:12:45;4.07;;;1.08;;
37407;SDS011;24866;50.248;8.252;2023-07-30T12:15:15;6.10;;;1.77;;
37407;SDS011;24866;50.248;8.252;2023-07-30T12:17:45;6.28;;;1.52;;
37407;SDS011;24866;50.248;8.252;2023-07-30T12:20:15;5.75;;;1.70;;
37407;SDS011;24866;50.248;8.252;2023-07-30T12:22:45;7.43;;;1.40;;
37407;SDS011;24866;50.248;8.252;2023-07-30T12:25:16;4.63;;;1.08;;
37407;SDS011;24866;50.248;8.252;2023-07-30T12:27:46;6.28;;;1.50;;
37407;SDS011;24866;50.248;8.252;2023-07-30T12:30:16;5.07;;;1.23;;
37407;SDS011;24866;50.248;8.252;2023-07-30T12:32:46;7.40;;;2.00;;
37407;SDS011;24866;50.248;8.252;2023-07-30T12:35:16;6.18;;;1.00;;
37407;SDS011;24866;50.248;8.252;2023-07-30T12:37:45;5.68;;;1.52;;
37407;SDS011;24866;50.248;8.252;2023-07-30T12:40:17;6.07;;;1.50;;
37407;SDS011;24866;50.248;8.252;2023-07-30T12:42:46;4.30;;;1.33;;
37407;SDS011;24866;50.248;8.252;2023-07-30T12:45:16;4.85;;;1.27;;
37407;SDS011;24866;50.248;8.252;2023-07-30T12:47:46;4.50;;;1.38;;
37407;SDS011;24866;50.248;8.252;2023-07-30T12:50:16;9.07;;;1.90;;
37407;SDS011;24866;50.248;8.252;2023-07-30T12:52:46;8.15;;;1.90;;
37407;SDS011;24866;50.248;8.252;2023-07-30T12:55:17;5.50;;;1.33;;
37407;SDS011;24866;50.248;8.252;2023-07-30T12:57:47;7.35;;;1.00;;
37407;SDS011;24866;50.248;8.252;2023-07-30T13:00:17;7.82;;;1.10;;
37407;SDS011;24866;50.248;8.252;2023-07-30T13:02:47;4.10;;;1.73;;
37407;SDS011;24866;50.248;8.252;2023-07-30T13:05:18;6.87;;;1.47;;
37407;SDS011;24866;50.248;8.252;2023-07-30T13:07:49;4.97;;;1.80;;
37407;SDS011;24866;50.248;8.252;2023-07-30T13:10:20;4.63;;;1.23;;
37407;SDS011;24866;50.248;8.252;2023-07-30T13:12:50;5.15;;;1.60;;
37407;SDS011;24866;50.248;8.252;2023-07-30T13:15:20;6.20;;;1.70;;
37407;SDS011;24866;50.248;8.252;2023-07-30T13:17:50;7.78;;;1.95;;
37407;SDS011;24866;50.248;8.252;2023-07-30T13:20:19;5.70;;;1.80;;
37407;SDS011;24866;50.248;8.252;2023-07-30T13:22:49;6.13;;;1.73;;
37407;SDS011;24866;50.248;8.252;2023-07-30T13:25:21;7.53;;;1.40;;
37407;SDS011;24866;50.248;8.252;2023-07-30T13:27:52;6.80;;;1.40;;
37407;SDS011;24866;50.248;8.252;2023-07-30T13:30:22;4.07;;;1.40;;
37407;SDS011;24866;50.248;8.252;2023-07-30T13:32:52;7.97;;;1.73;;
37407;SDS011;24866;50.248;8.252;2023-07-30T13:35:21;7.50;;;1.40;;
37407;SDS011;24866;50.248;8.252;2023-07-30T13:37:51;6.53;;;1.70;;
37407;SDS011;24866;50.248;8.252;2023-07-30T13:40:23;6.47;;;1.52;;
37407;SDS011;24866;50.248;8.252;2023-07-30T13:42:52;5.63;;;1.17;;
37407;SDS011;24866;50.248;8.252;2023-07-30T13:45:22;3.20;;;1.10;;
37407;SDS011;24866;50.248;8.252;2023-07-30T13:47:52;9.38;;;1.42;;
37407;SDS011;24866;50.248;8.252;2023-07-30T13:50:22;5.30;;;1.50;;
37407;SDS011;24866;50.248;8.252;2023-07-30T13:52:52;5.25;;;1.45;;
37407;SDS011;24866;50.248;8.252;2023-07-30T13:55:23;7.85;;;1.65;;
37407;SDS011;24866;50.248;8.252;2023-07-30T13:57:53;4.00;;;1.30;;
37407;SDS011;24866;50.248;8.252;2023-07-30T14:00:23;6.63;;;1.38;;
37407;SDS011;24866;50.248;8.252;2023-07-30T14:02:53;5.00;;;1.38;;
37407;SDS011;24866;50.248;8.252;2023-07-30T14:05:23;3.40;;;0.75;;
37407;SDS011;24866;50.248;8.252;2023-07-30T14:07:53;2.35;;;0.82;;
37407;SDS011;24866;50.248;8.252;2023-07-30T14:10:26;5.80;;;1.38;;
37407;SDS011;24866;50.248;8.252;2023-07-30T14:12:56;3.40;;;1.00;;
37407;SDS011;24866;50.248;8.252;2023-07-30T14:15:25;4.93;;;1.58;;
37407;SDS011;24866;50.248;8.252;2023-07-30T14:17:55;7.82;;;1.73;;
37407;SDS011;24866;50.248;8.252;2023-07-30T14:20:25;5.50;;;1.70;;
37407;SDS011;24866;50.248;8.252;2023-07-30T14:22:55;4.22;;;1.58;;
37407;SDS011;24866;50.248;8.252;2023-07-30T14:25:26;4.75;;;1.70;;
37407;SDS011;24866;50.248;8.252;2023-07-30T14:27:56;8.43;;;1.88;;
37407;SDS011;24866;50.248;8.252;2023-07-30T14:30:26;6.30;;;1.52;;
37407;SDS011;24866;50.248;8.252;2023-07-30T14:32:56;4.70;;;0.70;;
37407;SDS011;24866;50.248;8.252;2023-07-30T14:35:26;5.80;;;1.50;;
37407;SDS011;24866;50.248;8.252;2023-07-30T14:37:55;4.88;;;1.23;;
37407;SDS011;24866;50.248;8.252;2023-07-30T14:40:27;5.03;;;1.80;;
37407;SDS011;24866;50.248;8.252;2023-07-30T14:42:56;6.05;;;1.60;;
37407;SDS011;24866;50.248;8.252;2023-07-30T14:45:26;5.95;;;1.70;;
37407;SDS011;24866;50.248;8.252;2023-07-30T14:47:56;7.38;;;1.40;;
37407;SDS011;24866;50.248;8.252;2023-07-30T14:50:26;3.92;;;1.38;;
37407;SDS011;24866;50.248;8.252;2023-07-30T14:52:57;6.43;;;1.58;;
37407;SDS011;24866;50.248;8.252;2023-07-30T14:55:28;5.88;;;1.63;;
37407;SDS011;24866;50.248;8.252;2023-07-30T14:57:58;4.30;;;1.40;;
37407;SDS011;24866;50.248;8.252;2023-07-30T15:00:29;5.32;;;1.40;;
37407;SDS011;24866;50.248;8.252;2023-07-30T15:02:59;5.25;;;1.05;;
37407;SDS011;24866;50.248;8.252;2023-07-30T15:05:28;2.03;;;0.70;;
37407;SDS011;24866;50.248;8.252;2023-07-30T15:07:58;5.72;;;1.00;;
37407;SDS011;24866;50.248;8.252;2023-07-30T15:10:30;4.03;;;1.30;;
37407;SDS011;24866;50.248;8.252;2023-07-30T15:12:59;6.63;;;1.35;;